sensor_id;sensor_type;location;lat;lon;timestamp;pressure;altitude;pressure_sealevel;temperature;humidity
11888;BME280;6003;42.756;23.130;2022-12-11T00:01:36;155066.63;;;10.31;100.00
11888;BME280;6003;42.756;23.130;2022-12-11T00:04:03;155037.50;;;10.20;100.00
11888;BME280;6003;42.756;23.130;2022-12-11T00:06:40;155016.34;;;10.12;100.00
11888;BME280;6003;42.756;23.130;2022-12-11T00:09:07;155025.59;;;10.15;100.00
11888;BME280;6003;42.756;23.130;2022-12-11T00:11:34;155030.91;;;10.17;100.00
11888;BME280;6003;42.756;23.130;2022-12-11T00:14:01;155021.66;;;10.14;100.00
11888;BME280;6003;42.756;23.130;2022-12-11T00:16:27;155030.91;;;10.17;100.00
11888;BME280;6003;42.756;23.130;2022-12-11T00:18:56;155038.81;;;10.21;100.00
11888;BME280;6003;42.756;23.130;2022-12-11T00:21:22;155038.81;;;10.21;100.00
11888;BME280;6003;42.756;23.130;2022-12-11T00:23:49;155015.03;;;10.11;100.00
11888;BME280;6003;42.756;23.130;2022-12-11T00:26:16;155029.59;;;10.17;100.00
11888;BME280;6003;42.756;23.130;2022-12-11T00:28:43;155029.59;;;10.17;100.00
11888;BME280;6003;42.756;23.130;2022-12-11T00:31:12;155038.81;;;10.21;100.00
11888;BME280;6003;42.756;23.130;2022-12-11T00:33:40;155048.09;;;10.24;100.00
11888;BME280;6003;42.756;23.130;2022-12-11T00:36:12;155090.41;;;10.41;100.00
11888;BME280;6003;42.756;23.130;2022-12-11T00:38:39;155099.66;;;10.44;100.00
11888;BME280;6003;42.756;23.130;2022-12-11T00:41:07;155103.66;;;10.46;100.00
11888;BME280;6003;42.756;23.130;2022-12-11T00:43:34;155093.09;;;10.42;100.00
11888;BME280;6003;42.756;23.130;2022-12-11T00:46:01;155172.38;;;10.72;100.00
11888;BME280;6003;42.756;23.130;2022-12-11T00:48:28;155251.72;;;11.03;100.00
11888;BME280;6003;42.756;23.130;2022-12-11T00:50:55;155325.75;;;11.32;100.00
11888;BME280;6003;42.756;23.130;2022-12-11T00:53:23;155361.50;;;11.45;100.00
11888;BME280;6003;42.756;23.130;2022-12-11T00:55:50;155421.00;;;11.68;100.00
11888;BME280;6003;42.756;23.130;2022-12-11T13:21:37;153626.63;;;4.73;100.00
11888;BME280;6003;42.756;23.130;2022-12-11T13:24:16;153608.19;;;4.66;100.00
11888;BME280;6003;42.756;23.130;2022-12-11T13:26:43;153606.88;;;4.65;100.00
11888;BME280;6003;42.756;23.130;2022-12-11T13:29:29;153587.19;;;4.58;100.00
11888;BME280;6003;42.756;23.130;2022-12-11T13:31:57;153560.88;;;4.47;100.00
11888;BME280;6003;42.756;23.130;2022-12-11T13:34:27;153555.59;;;4.45;100.00
11888;BME280;6003;42.756;23.130;2022-12-11T13:36:56;153516.16;;;4.30;100.00
11888;BME280;6003;42.756;23.130;2022-12-11T13:39:24;153503.00;;;4.25;100.00
11888;BME280;6003;42.756;23.130;2022-12-11T13:41:54;153480.63;;;4.16;100.00
11888;BME280;6003;42.756;23.130;2022-12-11T13:44:25;153466.16;;;4.11;100.00
11888;BME280;6003;42.756;23.130;2022-12-11T13:46:54;153463.56;;;4.10;100.00
11888;BME280;6003;42.756;23.130;2022-12-11T13:49:24;153479.31;;;4.16;100.00
11888;BME280;6003;42.756;23.130;2022-12-11T13:51:54;153426.75;;;3.95;100.00
11888;BME280;6003;42.756;23.130;2022-12-11T13:54:23;153389.94;;;3.81;100.00
11888;BME280;6003;42.756;23.130;2022-12-11T13:56:59;153366.28;;;3.72;100.00
11888;BME280;6003;42.756;23.130;2022-12-11T13:59:30;153366.28;;;3.72;100.00
11888;BME280;6003;42.756;23.130;2022-12-11T14:02:02;153347.88;;;3.65;100.00
11888;BME280;6003;42.756;23.130;2022-12-11T14:04:30;153328.19;;;3.57;100.00
11888;BME280;6003;42.756;23.130;2022-12-11T14:07:00;153337.38;;;3.60;100.00
11888;BME280;6003;42.756;23.130;2022-12-11T14:09:29;153308.44;;;3.49;100.00
11888;BME280;6003;42.756;23.130;2022-12-11T14:11:56;153295.31;;;3.44;100.00
11888;BME280;6003;42.756;23.130;2022-12-11T14:14:28;153297.91;;;3.45;100.00
11888;BME280;6003;42.756;23.130;2022-12-11T14:16:59;153284.81;;;3.40;100.00
11888;BME280;6003;42.756;23.130;2022-12-11T14:19:26;153300.56;;;3.46;100.00
11888;BME280;6003;42.756;23.130;2022-12-11T14:21:55;153290.03;;;3.42;100.00
11888;BME280;6003;42.756;23.130;2022-12-11T14:24:22;153295.31;;;3.44;100.00
11888;BME280;6003;42.756;23.130;2022-12-11T14:26:52;153297.91;;;3.45;100.00
11888;BME280;6003;42.756;23.130;2022-12-11T14:29:23;153303.19;;;3.47;100.00
11888;BME280;6003;42.756;23.130;2022-12-11T14:31:51;153292.69;;;3.43;100.00
11888;BME280;6003;42.756;23.130;2022-12-11T14:34:22;153284.81;;;3.40;100.00
11888;BME280;6003;42.756;23.130;2022-12-11T14:36:50;153253.25;;;3.28;100.00
11888;BME280;6003;42.756;23.130;2022-12-11T14:39:20;153234.88;;;3.21;100.00
11888;BME280;6003;42.756;23.130;2022-12-11T14:41:55;153220.41;;;3.15;100.00
11888;BME280;6003;42.756;23.130;2022-12-11T14:44:24;153208.56;;;3.10;100.00
11888;BME280;6003;42.756;23.130;2022-12-11T14:46:55;153184.94;;;3.01;100.00
11888;BME280;6003;42.756;23.130;2022-12-11T14:49:25;153177.06;;;2.98;100.00
11888;BME280;6003;42.756;23.130;2022-12-11T14:51:55;153169.19;;;2.95;100.00
11888;BME280;6003;42.756;23.130;2022-12-11T14:54:28;153161.28;;;2.92;100.00
11888;BME280;6003;42.756;23.130;2022-12-11T14:56:59;153154.72;;;2.89;100.00
11888;BME280;6003;42.756;23.130;2022-12-11T14:59:28;153145.53;;;2.86;100.00
11888;BME280;6003;42.756;23.130;2022-12-11T15:01:58;153132.41;;;2.81;100.00
11888;BME280;6003;42.756;23.130;2022-12-11T15:04:28;153128.50;;;2.79;100.00
11888;BME280;6003;42.756;23.130;2022-12-11T15:06:55;153131.09;;;2.80;100.00
11888;BME280;6003;42.756;23.130;2022-12-11T15:09:25;153148.16;;;2.87;100.00
11888;BME280;6003;42.756;23.130;2022-12-11T15:11:54;153135.00;;;2.82;100.00
11888;BME280;6003;42.756;23.130;2022-12-11T15:14:23;153140.28;;;2.84;100.00
11888;BME280;6003;42.756;23.130;2022-12-11T15:16:53;153128.50;;;2.79;100.00
11888;BME280;6003;42.756;23.130;2022-12-11T15:19:23;153135.00;;;2.82;100.00
11888;BME280;6003;42.756;23.130;2022-12-11T15:21:52;153135.00;;;2.82;100.00
11888;BME280;6003;42.756;23.130;2022-12-11T15:24:26;153146.84;;;2.86;100.00
11888;BME280;6003;42.756;23.130;2022-12-11T15:26:56;153119.25;;;2.76;100.00
11888;BME280;6003;42.756;23.130;2022-12-11T15:29:31;153135.00;;;2.82;100.00
11888;BME280;6003;42.756;23.130;2022-12-11T15:32:11;153144.25;;;2.85;100.00
11888;BME280;6003;42.756;23.130;2022-12-11T15:34:44;153148.16;;;2.87;100.00
11888;BME280;6003;42.756;23.130;2022-12-11T15:37:22;153156.03;;;2.90;100.00
11888;BME280;6003;42.756;23.130;2022-12-11T15:40:24;153166.56;;;2.94;100.00
11888;BME280;6003;42.756;23.130;2022-12-11T15:42:52;153177.06;;;2.98;100.00
11888;BME280;6003;42.756;23.130;2022-12-11T15:45:24;153174.44;;;2.97;100.00
11888;BME280;6003;42.756;23.130;2022-12-11T15:47:53;153171.78;;;2.96;100.00
11888;BME280;6003;42.756;23.130;2022-12-11T15:50:22;153182.31;;;3.00;100.00
11888;BME280;6003;42.756;23.130;2022-12-11T15:52:51;153183.63;;;3.01;100.00
11888;BME280;6003;42.756;23.130;2022-12-11T15:55:19;153198.06;;;3.06;100.00
11888;BME280;6003;42.756;23.130;2022-12-11T15:57:48;153188.91;;;3.03;100.00
11888;BME280;6003;42.756;23.130;2022-12-11T16:00:17;153182.31;;;3.00;100.00
11888;BME280;6003;42.756;23.130;2022-12-11T16:02:46;153181.03;;;3.00;100.00
11888;BME280;6003;42.756;23.130;2022-12-11T16:05:13;153181.03;;;3.00;100.00
11888;BME280;6003;42.756;23.130;2022-12-11T16:07:40;153175.75;;;2.98;100.00
11888;BME280;6003;42.756;23.130;2022-12-11T16:10:14;153145.53;;;2.86;100.00
11888;BME280;6003;42.756;23.130;2022-12-11T16:12:42;153135.00;;;2.82;100.00
11888;BME280;6003;42.756;23.130;2022-12-11T16:15:10;153116.66;;;2.75;100.00
11888;BME280;6003;42.756;23.130;2022-12-11T16:17:38;153102.19;;;2.69;100.00
11888;BME280;6003;42.756;23.130;2022-12-11T16:20:09;153099.59;;;2.68;100.00
11888;BME280;6003;42.756;23.130;2022-12-11T16:22:36;153082.47;;;2.61;100.00
11888;BME280;6003;42.756;23.130;2022-12-11T16:25:03;153072.00;;;2.57;100.00
11888;BME280;6003;42.756;23.130;2022-12-11T16:27:31;153041.81;;;2.45;100.00
11888;BME280;6003;42.756;23.130;2022-12-11T16:29:57;153040.50;;;2.45;100.00
11888;BME280;6003;42.756;23.130;2022-12-11T16:32:24;153028.66;;;2.40;100.00
11888;BME280;6003;42.756;23.130;2022-12-11T16:34:51;153011.63;;;2.34;100.00
11888;BME280;6003;42.756;23.130;2022-12-11T16:37:19;152990.59;;;2.25;100.00
11888;BME280;6003;42.756;23.130;2022-12-11T16:39:46;153005.03;;;2.31;100.00
11888;BME280;6003;42.756;23.130;2022-12-11T16:42:13;152974.84;;;2.19;100.00
11888;BME280;6003;42.756;23.130;2022-12-11T16:44:40;152972.19;;;2.18;100.00
11888;BME280;6003;42.756;23.130;2022-12-11T16:47:07;152953.84;;;2.11;100.00
11888;BME280;6003;42.756;23.130;2022-12-11T16:49:34;152957.75;;;2.13;100.00
11888;BME280;6003;42.756;23.130;2022-12-11T16:52:01;152932.84;;;2.03;100.00
11888;BME280;6003;42.756;23.130;2022-12-11T16:54:29;152914.50;;;1.96;100.00
11888;BME280;6003;42.756;23.130;2022-12-11T16:56:56;152906.63;;;1.93;100.00
11888;BME280;6003;42.756;23.130;2022-12-11T16:59:23;152903.97;;;1.92;100.00
11888;BME280;6003;42.756;23.130;2022-12-11T17:01:50;152888.22;;;1.86;100.00
11888;BME280;6003;42.756;23.130;2022-12-11T17:04:16;152889.53;;;1.86;100.00
11888;BME280;6003;42.756;23.130;2022-12-11T17:06:43;152882.97;;;1.84;100.00
11888;BME280;6003;42.756;23.130;2022-12-11T17:12:29;152869.88;;;1.78;100.00
11888;BME280;6003;42.756;23.130;2022-12-11T17:14:56;152864.59;;;1.76;100.00
11888;BME280;6003;42.756;23.130;2022-12-11T17:17:23;152890.81;;;1.87;100.00
11888;BME280;6003;42.756;23.130;2022-12-11T17:19:50;152897.41;;;1.89;100.00
11888;BME280;6003;42.756;23.130;2022-12-11T17:22:17;152888.22;;;1.86;100.00
11888;BME280;6003;42.756;23.130;2022-12-11T17:24:44;152881.66;;;1.83;100.00
11888;BME280;6003;42.756;23.130;2022-12-11T17:27:11;152890.81;;;1.87;100.00
11888;BME280;6003;42.756;23.130;2022-12-11T17:29:39;152919.69;;;1.98;100.00
11888;BME280;6003;42.756;23.130;2022-12-11T17:32:07;152914.50;;;1.96;100.00
11888;BME280;6003;42.756;23.130;2022-12-11T17:34:33;152917.09;;;1.97;100.00
11888;BME280;6003;42.756;23.130;2022-12-11T17:37:00;152923.66;;;1.99;100.00
11888;BME280;6003;42.756;23.130;2022-12-11T17:39:27;152942.00;;;2.07;100.00
11888;BME280;6003;42.756;23.130;2022-12-11T17:41:54;152957.75;;;2.13;100.00
11888;BME280;6003;42.756;23.130;2022-12-11T17:44:21;152964.31;;;2.15;100.00
11888;BME280;6003;42.756;23.130;2022-12-11T17:46:49;152959.09;;;2.13;100.00
11888;BME280;6003;42.756;23.130;2022-12-11T17:49:16;152969.59;;;2.17;100.00
11888;BME280;6003;42.756;23.130;2022-12-11T17:51:42;152963.03;;;2.15;100.00
11888;BME280;6003;42.756;23.130;2022-12-11T17:54:09;152948.59;;;2.09;100.00
11888;BME280;6003;42.756;23.130;2022-12-11T17:56:36;152924.97;;;2.00;100.00
11888;BME280;6003;42.756;23.130;2022-12-11T17:59:03;152918.41;;;1.97;100.00
11888;BME280;6003;42.756;23.130;2022-12-11T18:01:30;152903.97;;;1.92;100.00
11888;BME280;6003;42.756;23.130;2022-12-11T18:03:58;152884.25;;;1.84;100.00
11888;BME280;6003;42.756;23.130;2022-12-11T18:06:26;152888.22;;;1.86;100.00
11888;BME280;6003;42.756;23.130;2022-12-11T18:08:53;152882.97;;;1.84;100.00
11888;BME280;6003;42.756;23.130;2022-12-11T18:11:20;152858.03;;;1.74;100.00
11888;BME280;6003;42.756;23.130;2022-12-11T18:13:48;152835.75;;;1.65;100.00
11888;BME280;6003;42.756;23.130;2022-12-11T18:16:16;152833.13;;;1.64;100.00
11888;BME280;6003;42.756;23.130;2022-12-11T18:18:44;152826.56;;;1.62;100.00
11888;BME280;6003;42.756;23.130;2022-12-11T18:21:14;152843.59;;;1.68;100.00
11888;BME280;6003;42.756;23.130;2022-12-11T18:23:41;152812.13;;;1.56;100.00
11888;BME280;6003;42.756;23.130;2022-12-11T18:26:08;152796.41;;;1.50;100.00
11888;BME280;6003;42.756;23.130;2022-12-11T18:28:38;152801.59;;;1.52;100.00
11888;BME280;6003;42.756;23.130;2022-12-11T18:31:05;152792.44;;;1.48;100.00
11888;BME280;6003;42.756;23.130;2022-12-11T18:33:34;152799.00;;;1.51;100.00
11888;BME280;6003;42.756;23.130;2022-12-11T18:36:02;152770.13;;;1.40;100.00
11888;BME280;6003;42.756;23.130;2022-12-11T18:38:30;152781.97;;;1.44;100.00
11888;BME280;6003;42.756;23.130;2022-12-11T18:40:57;152784.56;;;1.45;100.00
11888;BME280;6003;42.756;23.130;2022-12-11T18:43:24;152801.59;;;1.52;100.00
11888;BME280;6003;42.756;23.130;2022-12-11T18:45:51;152831.78;;;1.64;100.00
11888;BME280;6003;42.756;23.130;2022-12-11T18:48:18;152856.75;;;1.73;100.00
11888;BME280;6003;42.756;23.130;2022-12-11T18:50:45;152888.22;;;1.86;100.00
11888;BME280;6003;42.756;23.130;2022-12-11T18:53:12;152877.75;;;1.82;100.00
11888;BME280;6003;42.756;23.130;2022-12-11T18:55:42;152901.34;;;1.91;100.00
11888;BME280;6003;42.756;23.130;2022-12-11T18:58:09;152921.00;;;1.98;100.00
11888;BME280;6003;42.756;23.130;2022-12-11T19:00:36;152940.72;;;2.06;100.00
11888;BME280;6003;42.756;23.130;2022-12-11T19:03:03;152938.09;;;2.05;100.00
11888;BME280;6003;42.756;23.130;2022-12-11T19:05:30;152918.41;;;1.97;100.00
11888;BME280;6003;42.756;23.130;2022-12-11T19:07:58;152934.13;;;2.03;100.00
11888;BME280;6003;42.756;23.130;2022-12-11T19:10:24;152903.97;;;1.92;100.00
11888;BME280;6003;42.756;23.130;2022-12-11T19:12:52;152861.94;;;1.75;100.00
11888;BME280;6003;42.756;23.130;2022-12-11T19:15:19;152825.22;;;1.61;100.00
11888;BME280;6003;42.756;23.130;2022-12-11T19:17:46;152820.00;;;1.59;100.00
11888;BME280;6003;42.756;23.130;2022-12-11T19:20:13;152814.75;;;1.57;100.00
11888;BME280;6003;42.756;23.130;2022-12-11T19:22:40;152809.47;;;1.55;100.00
11888;BME280;6003;42.756;23.130;2022-12-11T19:25:07;152788.53;;;1.47;100.00
11888;BME280;6003;42.756;23.130;2022-12-11T19:27:34;152780.63;;;1.44;100.00
11888;BME280;6003;42.756;23.130;2022-12-11T19:30:04;152778.00;;;1.43;100.00
11888;BME280;6003;42.756;23.130;2022-12-11T19:32:31;152781.97;;;1.44;100.00
11888;BME280;6003;42.756;23.130;2022-12-11T19:34:58;152772.75;;;1.41;100.00
11888;BME280;6003;42.756;23.130;2022-12-11T19:37:24;152762.28;;;1.37;100.00
11888;BME280;6003;42.756;23.130;2022-12-11T19:39:51;152757.00;;;1.34;100.00
11888;BME280;6003;42.756;23.130;2022-12-11T19:42:18;152742.59;;;1.29;100.00
11888;BME280;6003;42.756;23.130;2022-12-11T19:44:45;152746.53;;;1.30;100.00
11888;BME280;6003;42.756;23.130;2022-12-11T19:47:13;152783.28;;;1.45;100.00
11888;BME280;6003;42.756;23.130;2022-12-11T19:49:40;152775.41;;;1.42;100.00
11888;BME280;6003;42.756;23.130;2022-12-11T19:52:06;152772.75;;;1.41;100.00
11888;BME280;6003;42.756;23.130;2022-12-11T19:54:33;152779.31;;;1.43;100.00
11888;BME280;6003;42.756;23.130;2022-12-11T19:57:03;152770.13;;;1.40;100.00
11888;BME280;6003;42.756;23.130;2022-12-11T19:59:30;152775.41;;;1.42;100.00
11888;BME280;6003;42.756;23.130;2022-12-11T20:01:57;152771.44;;;1.40;100.00
11888;BME280;6003;42.756;23.130;2022-12-11T20:04:25;152764.88;;;1.38;100.00
11888;BME280;6003;42.756;23.130;2022-12-11T20:06:52;152747.84;;;1.31;100.00
11888;BME280;6003;42.756;23.130;2022-12-11T20:09:19;152717.69;;;1.19;100.00
11888;BME280;6003;42.756;23.130;2022-12-11T20:11:45;152688.81;;;1.08;100.00
11888;BME280;6003;42.756;23.130;2022-12-11T20:14:18;152682.25;;;1.05;100.00
11888;BME280;6003;42.756;23.130;2022-12-11T20:16:46;152704.56;;;1.14;100.00
11888;BME280;6003;42.756;23.130;2022-12-11T20:19:13;152717.69;;;1.19;100.00
11888;BME280;6003;42.756;23.130;2022-12-11T20:21:41;152712.41;;;1.17;100.00
11888;BME280;6003;42.756;23.130;2022-12-11T20:24:09;152715.06;;;1.18;100.00
11888;BME280;6003;42.756;23.130;2022-12-11T20:26:36;152722.94;;;1.21;100.00
11888;BME280;6003;42.756;23.130;2022-12-11T20:29:04;152728.16;;;1.23;100.00
11888;BME280;6003;42.756;23.130;2022-12-11T20:31:33;152762.28;;;1.37;100.00
11888;BME280;6003;42.756;23.130;2022-12-11T20:34:00;152766.19;;;1.38;100.00
11888;BME280;6003;42.756;23.130;2022-12-11T20:36:27;152792.44;;;1.48;100.00
11888;BME280;6003;42.756;23.130;2022-12-11T20:38:55;152801.59;;;1.52;100.00
11888;BME280;6003;42.756;23.130;2022-12-11T20:41:24;152795.03;;;1.49;100.00
11888;BME280;6003;42.756;23.130;2022-12-11T20:43:51;152806.88;;;1.54;100.00
11888;BME280;6003;42.756;23.130;2022-12-11T20:46:19;152820.00;;;1.59;100.00
11888;BME280;6003;42.756;23.130;2022-12-11T20:48:47;152837.03;;;1.66;100.00
11888;BME280;6003;42.756;23.130;2022-12-11T20:51:17;152850.19;;;1.71;100.00
11888;BME280;6003;42.756;23.130;2022-12-11T20:53:46;152880.34;;;1.83;100.00
11888;BME280;6003;42.756;23.130;2022-12-11T20:56:17;152872.47;;;1.79;100.00
11888;BME280;6003;42.756;23.130;2022-12-11T20:58:45;152888.22;;;1.86;100.00
11888;BME280;6003;42.756;23.130;2022-12-11T21:01:13;152881.66;;;1.83;100.00
11888;BME280;6003;42.756;23.130;2022-12-11T21:03:40;152876.41;;;1.81;100.00
11888;BME280;6003;42.756;23.130;2022-12-11T21:06:08;152875.09;;;1.80;100.00
11888;BME280;6003;42.756;23.130;2022-12-11T21:08:34;152893.47;;;1.88;100.00
11888;BME280;6003;42.756;23.130;2022-12-11T21:11:04;152909.22;;;1.94;100.00
11888;BME280;6003;42.756;23.130;2022-12-11T21:13:32;152919.69;;;1.98;100.00
11888;BME280;6003;42.756;23.130;2022-12-11T21:16:03;152935.44;;;2.04;100.00
11888;BME280;6003;42.756;23.130;2022-12-11T21:18:30;152940.72;;;2.06;100.00
11888;BME280;6003;42.756;23.130;2022-12-11T21:20:57;152942.00;;;2.07;100.00
11888;BME280;6003;42.756;23.130;2022-12-11T21:23:24;152890.81;;;1.87;100.00
11888;BME280;6003;42.756;23.130;2022-12-11T21:25:51;152873.78;;;1.80;100.00
11888;BME280;6003;42.756;23.130;2022-12-11T21:28:19;152893.47;;;1.88;100.00
11888;BME280;6003;42.756;23.130;2022-12-11T21:30:47;152907.91;;;1.93;100.00
11888;BME280;6003;42.756;23.130;2022-12-11T21:33:14;152896.09;;;1.89;100.00
11888;BME280;6003;42.756;23.130;2022-12-11T21:35:41;152919.69;;;1.98;100.00
11888;BME280;6003;42.756;23.130;2022-12-11T21:38:07;152947.28;;;2.09;100.00
11888;BME280;6003;42.756;23.130;2022-12-11T21:40:35;152949.88;;;2.10;100.00
11888;BME280;6003;42.756;23.130;2022-12-11T21:43:01;152945.97;;;2.08;100.00
11888;BME280;6003;42.756;23.130;2022-12-11T21:45:29;152959.09;;;2.13;100.00
11888;BME280;6003;42.756;23.130;2022-12-11T21:47:57;152978.78;;;2.21;100.00
11888;BME280;6003;42.756;23.130;2022-12-11T21:50:23;153006.34;;;2.32;100.00
11888;BME280;6003;42.756;23.130;2022-12-11T21:52:50;152995.88;;;2.28;100.00
11888;BME280;6003;42.756;23.130;2022-12-11T21:55:17;153008.97;;;2.33;100.00
11888;BME280;6003;42.756;23.130;2022-12-11T21:57:44;152988.00;;;2.24;100.00
11888;BME280;6003;42.756;23.130;2022-12-11T22:00:12;152985.34;;;2.23;100.00
11888;BME280;6003;42.756;23.130;2022-12-11T22:02:38;152991.91;;;2.26;100.00
11888;BME280;6003;42.756;23.130;2022-12-11T22:05:08;152986.66;;;2.24;100.00
11888;BME280;6003;42.756;23.130;2022-12-11T22:07:34;152978.78;;;2.21;100.00
11888;BME280;6003;42.756;23.130;2022-12-11T22:10:02;152978.78;;;2.21;100.00
11888;BME280;6003;42.756;23.130;2022-12-11T22:12:29;152974.84;;;2.19;100.00
11888;BME280;6003;42.756;23.130;2022-12-11T22:14:56;152974.84;;;2.19;100.00
11888;BME280;6003;42.756;23.130;2022-12-11T22:17:23;152966.97;;;2.16;100.00
11888;BME280;6003;42.756;23.130;2022-12-11T22:20:10;152980.06;;;2.21;100.00
11888;BME280;6003;42.756;23.130;2022-12-11T22:22:37;152985.34;;;2.23;100.00
11888;BME280;6003;42.756;23.130;2022-12-11T22:25:05;152966.97;;;2.16;100.00
11888;BME280;6003;42.756;23.130;2022-12-11T22:27:32;152951.25;;;2.10;100.00
11888;BME280;6003;42.756;23.130;2022-12-11T22:29:59;152957.75;;;2.13;100.00
11888;BME280;6003;42.756;23.130;2022-12-11T22:32:26;152973.56;;;2.19;100.00
11888;BME280;6003;42.756;23.130;2022-12-11T22:34:53;152982.72;;;2.22;100.00
11888;BME280;6003;42.756;23.130;2022-12-11T22:37:22;152994.50;;;2.27;100.00
11888;BME280;6003;42.756;23.130;2022-12-11T22:39:49;153003.75;;;2.31;100.00
11888;BME280;6003;42.756;23.130;2022-12-11T22:42:16;153014.22;;;2.35;100.00
11888;BME280;6003;42.756;23.130;2022-12-11T22:44:42;153032.63;;;2.42;100.00
11888;BME280;6003;42.756;23.130;2022-12-11T22:47:09;153040.50;;;2.45;100.00
11888;BME280;6003;42.756;23.130;2022-12-11T22:49:36;153050.97;;;2.49;100.00
11888;BME280;6003;42.756;23.130;2022-12-11T22:52:03;153066.72;;;2.55;100.00
11888;BME280;6003;42.756;23.130;2022-12-11T22:54:31;153086.44;;;2.63;100.00
11888;BME280;6003;42.756;23.130;2022-12-11T22:56:58;153103.50;;;2.69;100.00
11888;BME280;6003;42.756;23.130;2022-12-11T22:59:25;153096.94;;;2.67;100.00
11888;BME280;6003;42.756;23.130;2022-12-11T23:01:52;153115.34;;;2.74;100.00
11888;BME280;6003;42.756;23.130;2022-12-11T23:04:19;153142.88;;;2.85;100.00
11888;BME280;6003;42.756;23.130;2022-12-11T23:06:46;153171.78;;;2.96;100.00
11888;BME280;6003;42.756;23.130;2022-12-11T23:09:13;153198.06;;;3.06;100.00
11888;BME280;6003;42.756;23.130;2022-12-11T23:11:41;153192.81;;;3.04;100.00
11888;BME280;6003;42.756;23.130;2022-12-11T23:14:13;153207.25;;;3.10;100.00
11888;BME280;6003;42.756;23.130;2022-12-11T23:16:39;153198.06;;;3.06;100.00
11888;BME280;6003;42.756;23.130;2022-12-11T23:19:06;153219.09;;;3.14;100.00
11888;BME280;6003;42.756;23.130;2022-12-11T23:21:33;153236.16;;;3.21;100.00
11888;BME280;6003;42.756;23.130;2022-12-11T23:24:00;153250.63;;;3.27;100.00
11888;BME280;6003;42.756;23.130;2022-12-11T23:26:28;153261.13;;;3.31;100.00
11888;BME280;6003;42.756;23.130;2022-12-11T23:28:57;153279.53;;;3.38;100.00
11888;BME280;6003;42.756;23.130;2022-12-11T23:31:24;153253.25;;;3.28;100.00
11888;BME280;6003;42.756;23.130;2022-12-11T23:33:52;153248.03;;;3.26;100.00
11888;BME280;6003;42.756;23.130;2022-12-11T23:36:19;153251.94;;;3.27;100.00
11888;BME280;6003;42.756;23.130;2022-12-11T23:38:46;153238.78;;;3.22;100.00
11888;BME280;6003;42.756;23.130;2022-12-11T23:41:13;153234.88;;;3.21;100.00
11888;BME280;6003;42.756;23.130;2022-12-11T23:43:40;153232.25;;;3.20;100.00
11888;BME280;6003;42.756;23.130;2022-12-11T23:46:12;153234.88;;;3.21;100.00
11888;BME280;6003;42.756;23.130;2022-12-11T23:48:39;153240.13;;;3.23;100.00
11888;BME280;6003;42.756;23.130;2022-12-11T23:51:08;153261.13;;;3.31;100.00
11888;BME280;6003;42.756;23.130;2022-12-11T23:53:35;153258.50;;;3.30;100.00
11888;BME280;6003;42.756;23.130;2022-12-11T23:56:04;153258.50;;;3.30;100.00
11888;BME280;6003;42.756;23.130;2022-12-11T23:58:34;153274.28;;;3.36;100.00
